Aviation Digital Data Service (ADDS)

Output produced by METARs form (2154 UTC 19 February 2018)
found at http://www.aviationweather.gov/adds/metars/
 
FCBB 192100Z 00000KT 9000 FEW014 24/22 Q1012 NOSIG
TAF FCBB 191700Z 1918/2024 26004KT 9999 FEW014 
     BECMG 2013/2015 FEW020 FEW030CB
       
FCPP 192100Z 34002KT 8000 FEW010 24/23 Q1010 NOSIG
TAF FCPP 191700Z 1918/2018 13009KT 8000-TSRA BKN020 FEW030CB 
     BECMG 1919/1921 NSW SCT023 
     BECMG 2003/2005 BKN022